Time;durP1;ratioP1;P1;durP2;ratioP2;P2;SDS_P1;SDS_P2;PMS_P1;PMS_P2;Temp;Humidity;BMP_temperature;BMP_pressure;BME280_temperature;BME280_humidity;BME280_pressure;Samples;Min_cycle;Max_cycle;Signal;HPM_P1;HPM_P2
2021/06/08 00:01:40;;;;;;;35.70;32.43;;;;;;;;;;5052694;28;20495;-80
2021/06/08 00:04:07;;;;;;;35.67;32.47;;;;;;;;;;5058063;28;20461;-79
2021/06/08 00:06:34;;;;;;;36.40;32.90;;;;;;;;;;5052599;28;20550;-80
2021/06/08 00:09:01;;;;;;;36.30;32.90;;;;;;;;;;5045333;28;20469;-80
2021/06/08 00:11:27;;;;;;;35.70;32.50;;;;;;;;;;5045557;28;21125;-80
2021/06/08 00:13:54;;;;;;;36.63;33.00;;;;;;;;;;5049426;28;20585;-80
2021/06/08 00:16:21;;;;;;;36.13;33.03;;;;;;;;;;5051021;28;20501;-81
2021/06/08 00:18:49;;;;;;;35.93;32.60;;;;;;;;;;5046805;28;20569;-80
2021/06/08 00:21:15;;;;;;;36.77;33.20;;;;;;;;;;5057540;28;20450;-79
2021/06/08 00:23:42;;;;;;;36.77;33.37;;;;;;;;;;5050049;28;20479;-80
2021/06/08 00:26:09;;;;;;;35.83;32.23;;;;;;;;;;5056485;28;20954;-81
2021/06/08 00:28:35;;;;;;;37.10;33.50;;;;;;;;;;5051353;28;20461;-79
2021/06/08 00:31:02;;;;;;;35.40;32.13;;;;;;;;;;5058792;28;20457;-79
2021/06/08 00:33:30;;;;;;;35.33;32.20;;;;;;;;;;5059058;28;21222;-79
2021/06/08 00:35:58;;;;;;;35.80;32.37;;;;;;;;;;5054567;28;20990;-80
2021/06/08 00:38:25;;;;;;;36.47;33.07;;;;;;;;;;5060187;28;20454;-79
2021/06/08 00:40:51;;;;;;;36.70;33.60;;;;;;;;;;5059463;28;20495;-79
2021/06/08 00:43:23;;;;;;;35.07;31.83;;;;;;;;;;5062252;28;20455;-79
2021/06/08 00:45:50;;;;;;;40.77;37.00;;;;;;;;;;5051798;28;20454;-80
2021/06/08 00:48:17;;;;;;;38.43;34.90;;;;;;;;;;5052579;28;20543;-81
2021/06/08 00:50:43;;;;;;;37.00;33.40;;;;;;;;;;5055005;28;22444;-81
2021/06/08 00:53:11;;;;;;;37.83;34.13;;;;;;;;;;5058384;28;20945;-82
2021/06/08 00:55:38;;;;;;;37.60;34.13;;;;;;;;;;5051759;28;20488;-80
2021/06/08 00:58:04;;;;;;;38.57;35.13;;;;;;;;;;5052204;28;20462;-79
2021/06/08 01:00:31;;;;;;;39.23;35.50;;;;;;;;;;5045315;28;20571;-80
2021/06/08 01:02:58;;;;;;;37.73;34.13;;;;;;;;;;5051321;28;20492;-79
2021/06/08 01:05:25;;;;;;;36.33;33.10;;;;;;;;;;5047711;28;20580;-79
2021/06/08 01:07:52;;;;;;;37.33;34.07;;;;;;;;;;5046618;28;20446;-79
2021/06/08 01:10:20;;;;;;;40.47;36.57;;;;;;;;;;5048100;28;20457;-79
2021/06/08 01:12:46;;;;;;;40.63;36.67;;;;;;;;;;5049344;28;20452;-80
2021/06/08 01:15:13;;;;;;;40.03;36.30;;;;;;;;;;5045877;28;20464;-79
2021/06/08 01:17:40;;;;;;;40.27;36.67;;;;;;;;;;5053401;28;20473;-80
2021/06/08 01:20:08;;;;;;;39.57;35.87;;;;;;;;;;5048627;28;20933;-79
2021/06/08 01:22:36;;;;;;;41.30;37.50;;;;;;;;;;5050821;28;20650;-78
2021/06/08 01:25:04;;;;;;;39.57;35.67;;;;;;;;;;5055146;28;20987;-82
2021/06/08 01:27:31;;;;;;;38.77;35.00;;;;;;;;;;5050044;28;20520;-79
2021/06/08 01:29:59;;;;;;;40.37;36.40;;;;;;;;;;5045515;28;20450;-79
2021/06/08 01:32:27;;;;;;;39.53;35.80;;;;;;;;;;5043573;28;20458;-79
2021/06/08 01:34:55;;;;;;;41.97;38.00;;;;;;;;;;5062844;28;20485;-79
2021/06/08 01:37:22;;;;;;;40.60;36.90;;;;;;;;;;5049988;28;20476;-79
2021/06/08 01:39:50;;;;;;;42.10;37.97;;;;;;;;;;5047962;28;20478;-80
2021/06/08 01:42:16;;;;;;;41.80;38.00;;;;;;;;;;5046602;28;20464;-79
2021/06/08 01:44:43;;;;;;;43.67;39.40;;;;;;;;;;5052947;28;20555;-79
2021/06/08 01:47:10;;;;;;;43.27;38.97;;;;;;;;;;5042843;28;20496;-79
2021/06/08 01:49:37;;;;;;;42.07;38.20;;;;;;;;;;5052326;28;20590;-80
2021/06/08 01:52:10;;;;;;;44.80;40.67;;;;;;;;;;5052312;28;20463;-79
2021/06/08 01:54:41;;;;;;;45.73;41.03;;;;;;;;;;5050015;28;20457;-79
2021/06/08 01:57:10;;;;;;;43.90;39.43;;;;;;;;;;5055261;28;20478;-80
2021/06/08 01:59:45;;;;;;;42.87;38.77;;;;;;;;;;5066323;28;20473;-81
2021/06/08 02:02:13;;;;;;;43.50;39.60;;;;;;;;;;5058316;28;20521;-79
2021/06/08 02:04:42;;;;;;;41.70;37.77;;;;;;;;;;5069887;28;20533;-79
2021/06/08 02:07:13;;;;;;;43.93;39.97;;;;;;;;;;5057135;28;20507;-79
2021/06/08 02:09:43;;;;;;;42.13;38.23;;;;;;;;;;5057645;28;20477;-80
2021/06/08 02:12:15;;;;;;;43.67;39.50;;;;;;;;;;5061759;28;20591;-80
2021/06/08 02:14:44;;;;;;;45.33;41.23;;;;;;;;;;5073346;28;20523;-80
2021/06/08 02:17:14;;;;;;;47.33;42.90;;;;;;;;;;5063517;28;20469;-81
2021/06/08 02:19:42;;;;;;;48.03;42.90;;;;;;;;;;5058998;28;20462;-80
2021/06/08 02:22:10;;;;;;;44.37;39.97;;;;;;;;;;5069866;28;20492;-79
2021/06/08 02:24:38;;;;;;;44.50;40.03;;;;;;;;;;5052871;28;20542;-79
2021/06/08 02:27:06;;;;;;;47.10;42.30;;;;;;;;;;5048316;28;20490;-79
2021/06/08 02:29:34;;;;;;;46.67;42.27;;;;;;;;;;5045144;28;20468;-80
2021/06/08 02:32:01;;;;;;;48.00;43.33;;;;;;;;;;5050463;28;20982;-80
2021/06/08 02:34:29;;;;;;;49.37;44.67;;;;;;;;;;5051774;28;20453;-80
2021/06/08 02:36:56;;;;;;;48.00;43.20;;;;;;;;;;5052154;28;20462;-79
2021/06/08 02:39:23;;;;;;;49.20;44.40;;;;;;;;;;5057146;28;20580;-79
2021/06/08 02:41:50;;;;;;;48.77;44.20;;;;;;;;;;5052893;28;20463;-79
2021/06/08 02:44:18;;;;;;;47.40;42.90;;;;;;;;;;5058443;28;20456;-80
2021/06/08 02:46:47;;;;;;;50.33;45.30;;;;;;;;;;5055009;28;20539;-79
2021/06/08 02:49:13;;;;;;;52.73;47.43;;;;;;;;;;5058594;28;20464;-79
2021/06/08 02:51:40;;;;;;;53.83;48.13;;;;;;;;;;5056114;28;20467;-79
2021/06/08 02:54:07;;;;;;;56.00;50.53;;;;;;;;;;5054836;28;20549;-81
2021/06/08 02:56:34;;;;;;;55.90;50.10;;;;;;;;;;5051956;28;20461;-79
2021/06/08 02:59:01;;;;;;;52.80;47.50;;;;;;;;;;5048316;28;20484;-79
2021/06/08 03:01:28;;;;;;;57.27;51.47;;;;;;;;;;5043663;28;20461;-79
2021/06/08 03:03:59;;;;;;;60.70;49.20;;;;;;;;;;5048124;28;20499;-82
2021/06/08 03:06:28;;;;;;;56.10;50.30;;;;;;;;;;5053821;28;20464;-81
2021/06/08 03:08:56;;;;;;;54.53;48.80;;;;;;;;;;5051199;28;20552;-80
2021/06/08 03:11:24;;;;;;;54.50;49.30;;;;;;;;;;5054592;28;20460;-80
2021/06/08 03:13:52;;;;;;;55.90;50.30;;;;;;;;;;5058379;28;20494;-80
2021/06/08 03:16:20;;;;;;;53.57;48.23;;;;;;;;;;5059222;28;20508;-80
2021/06/08 03:18:49;;;;;;;55.97;50.47;;;;;;;;;;5058660;28;20446;-80
2021/06/08 03:21:19;;;;;;;55.63;49.93;;;;;;;;;;5060504;28;20740;-80
2021/06/08 03:23:48;;;;;;;52.50;47.40;;;;;;;;;;5054794;28;20451;-81
2021/06/08 03:26:15;;;;;;;55.80;50.23;;;;;;;;;;5056905;28;20446;-81
2021/06/08 03:28:43;;;;;;;55.33;49.57;;;;;;;;;;5057398;28;20456;-80
2021/06/08 03:31:10;;;;;;;53.30;48.37;;;;;;;;;;5052666;28;20454;-81
2021/06/08 03:33:37;;;;;;;52.63;47.40;;;;;;;;;;5054357;28;20797;-78
2021/06/08 03:36:05;;;;;;;54.13;48.87;;;;;;;;;;5057245;28;21025;-79
2021/06/08 03:38:33;;;;;;;50.80;46.03;;;;;;;;;;5057374;28;20461;-80
2021/06/08 03:41:00;;;;;;;50.43;45.63;;;;;;;;;;5072433;28;20498;-80
2021/06/08 03:43:27;;;;;;;49.27;44.67;;;;;;;;;;5081945;28;20476;-79
2021/06/08 03:45:54;;;;;;;49.23;44.43;;;;;;;;;;5055508;28;20492;-79
2021/06/08 03:48:21;;;;;;;49.10;44.50;;;;;;;;;;5057317;28;20791;-81
2021/06/08 03:50:50;;;;;;;45.30;41.10;;;;;;;;;;5051846;28;20456;-82
2021/06/08 03:53:17;;;;;;;48.27;43.67;;;;;;;;;;5057329;28;20535;-81
2021/06/08 03:55:47;;;;;;;47.17;42.70;;;;;;;;;;5056546;28;20443;-80
2021/06/08 03:58:16;;;;;;;50.07;45.40;;;;;;;;;;5049336;28;20857;-81
2021/06/08 04:00:46;;;;;;;48.00;43.10;;;;;;;;;;5048575;28;20474;-81
2021/06/08 04:03:13;;;;;;;48.73;44.17;;;;;;;;;;5053374;28;20467;-81
2021/06/08 04:05:40;;;;;;;50.30;45.50;;;;;;;;;;5063739;28;20461;-79
2021/06/08 04:08:09;;;;;;;46.10;41.70;;;;;;;;;;5055642;28;20493;-79
2021/06/08 04:10:36;;;;;;;45.90;41.50;;;;;;;;;;5056185;28;20463;-80
2021/06/08 04:13:05;;;;;;;43.67;39.67;;;;;;;;;;5051097;28;20544;-80
2021/06/08 04:15:32;;;;;;;45.87;41.60;;;;;;;;;;5054339;28;20448;-80
2021/06/08 04:17:59;;;;;;;45.30;41.30;;;;;;;;;;5048200;28;21081;-79
2021/06/08 04:20:27;;;;;;;41.73;37.50;;;;;;;;;;5052098;28;20464;-80
2021/06/08 04:22:56;;;;;;;41.77;37.97;;;;;;;;;;5056025;28;20452;-80
2021/06/08 04:25:22;;;;;;;40.13;36.60;;;;;;;;;;5052287;28;20588;-80
2021/06/08 04:27:49;;;;;;;41.80;37.93;;;;;;;;;;5047111;28;20458;-80
2021/06/08 04:30:18;;;;;;;41.20;37.47;;;;;;;;;;5055286;28;20489;-79
2021/06/08 04:32:48;;;;;;;40.07;36.30;;;;;;;;;;5054957;28;20454;-80
2021/06/08 04:35:15;;;;;;;40.60;36.80;;;;;;;;;;5057023;28;20443;-80
2021/06/08 04:37:42;;;;;;;41.13;37.13;;;;;;;;;;5052251;28;20935;-80
2021/06/08 04:40:10;;;;;;;38.43;34.97;;;;;;;;;;5050452;28;20495;-80
2021/06/08 04:42:37;;;;;;;38.87;35.47;;;;;;;;;;5057177;28;21354;-80
2021/06/08 04:45:04;;;;;;;40.53;37.03;;;;;;;;;;5051974;28;20512;-79
2021/06/08 04:47:32;;;;;;;40.40;36.80;;;;;;;;;;5055229;28;20462;-80
2021/06/08 04:49:59;;;;;;;41.67;38.07;;;;;;;;;;5049908;28;20742;-79
2021/06/08 04:52:25;;;;;;;39.80;36.07;;;;;;;;;;5060207;28;20514;-80
2021/06/08 04:54:52;;;;;;;39.53;36.00;;;;;;;;;;5038107;28;20482;-80
2021/06/08 04:57:19;;;;;;;39.43;36.03;;;;;;;;;;5056397;28;20946;-80
2021/06/08 04:59:48;;;;;;;41.80;38.07;;;;;;;;;;5052040;28;20457;-80
2021/06/08 05:02:18;;;;;;;41.70;37.33;;;;;;;;;;5056948;28;20520;-80
2021/06/08 05:04:46;;;;;;;39.83;36.23;;;;;;;;;;5052143;28;20467;-79
2021/06/08 05:07:16;;;;;;;38.97;35.57;;;;;;;;;;5057838;28;21059;-80
2021/06/08 05:09:45;;;;;;;40.57;36.77;;;;;;;;;;5056788;28;20576;-79
2021/06/08 05:12:13;;;;;;;38.77;35.27;;;;;;;;;;5053519;28;20467;-80
2021/06/08 05:14:56;;;;;;;35.23;32.07;;;;;;;;;;5011261;28;20463;-79
2021/06/08 05:17:25;;;;;;;38.10;34.23;;;;;;;;;;5057445;28;20474;-81
2021/06/08 05:19:54;;;;;;;35.00;32.10;;;;;;;;;;5056414;28;20462;-79
2021/06/08 05:22:21;;;;;;;35.53;32.43;;;;;;;;;;5049490;28;20458;-79
2021/06/08 05:24:51;;;;;;;35.27;32.30;;;;;;;;;;5048179;28;20541;-79
2021/06/08 05:27:18;;;;;;;32.73;29.93;;;;;;;;;;5053319;28;20485;-79
2021/06/08 05:29:45;;;;;;;34.47;31.43;;;;;;;;;;5056684;28;20444;-80
2021/06/08 05:32:13;;;;;;;34.10;31.00;;;;;;;;;;5057604;28;20435;-79
2021/06/08 05:34:41;;;;;;;34.73;31.83;;;;;;;;;;5054444;28;20489;-79
2021/06/08 05:37:10;;;;;;;34.13;31.07;;;;;;;;;;5058055;28;20467;-79
2021/06/08 05:39:38;;;;;;;33.80;30.53;;;;;;;;;;5050230;28;20497;-80
2021/06/08 05:42:05;;;;;;;33.60;30.70;;;;;;;;;;5048717;28;20515;-80
2021/06/08 05:44:33;;;;;;;32.47;29.57;;;;;;;;;;5056022;28;20449;-80
2021/06/08 05:47:00;;;;;;;32.20;29.40;;;;;;;;;;5064839;28;20508;-80
2021/06/08 05:49:27;;;;;;;33.83;30.93;;;;;;;;;;5053380;28;20461;-80
2021/06/08 05:51:53;;;;;;;32.20;29.50;;;;;;;;;;5058887;28;20487;-80
2021/06/08 05:54:22;;;;;;;33.43;30.17;;;;;;;;;;5063145;28;20454;-76
2021/06/08 05:56:49;;;;;;;33.63;30.60;;;;;;;;;;5070650;28;20467;-79
2021/06/08 05:59:16;;;;;;;32.67;29.97;;;;;;;;;;5067205;28;20440;-79
2021/06/08 06:01:43;;;;;;;33.40;30.50;;;;;;;;;;5061489;28;20512;-80
2021/06/08 06:04:12;;;;;;;32.83;29.80;;;;;;;;;;5068439;28;20476;-80
2021/06/08 06:06:39;;;;;;;34.13;30.97;;;;;;;;;;5061080;28;20460;-80
2021/06/08 06:09:06;;;;;;;33.40;30.53;;;;;;;;;;5058348;28;20467;-80
2021/06/08 06:11:36;;;;;;;33.73;30.70;;;;;;;;;;5055288;28;20472;-80
2021/06/08 06:14:04;;;;;;;33.63;30.63;;;;;;;;;;5065071;28;21030;-80
2021/06/08 06:16:34;;;;;;;33.70;30.80;;;;;;;;;;5055767;28;20500;-80
2021/06/08 06:19:01;;;;;;;30.80;28.20;;;;;;;;;;5064247;28;20550;-81
2021/06/08 06:21:28;;;;;;;30.60;28.00;;;;;;;;;;5054318;28;20491;-79
2021/06/08 06:23:57;;;;;;;33.27;30.27;;;;;;;;;;5051790;28;20506;-79
2021/06/08 06:26:25;;;;;;;34.50;31.60;;;;;;;;;;5059279;28;20498;-80
2021/06/08 06:28:56;;;;;;;33.40;30.40;;;;;;;;;;5057153;28;20445;-80
2021/06/08 06:31:23;;;;;;;33.17;29.83;;;;;;;;;;5062911;28;20449;-80
2021/06/08 06:33:55;;;;;;;32.27;29.30;;;;;;;;;;5054074;28;20497;-80
2021/06/08 06:36:24;;;;;;;33.47;30.57;;;;;;;;;;5070508;28;20467;-80
2021/06/08 06:38:51;;;;;;;32.50;29.70;;;;;;;;;;5061730;28;20485;-80
2021/06/08 06:41:19;;;;;;;35.07;31.77;;;;;;;;;;5060582;28;20991;-79
2021/06/08 06:43:49;;;;;;;32.80;30.00;;;;;;;;;;5054209;28;20492;-79
2021/06/08 06:46:17;;;;;;;32.83;30.03;;;;;;;;;;5053380;28;20455;-80
2021/06/08 06:48:45;;;;;;;31.47;28.33;;;;;;;;;;5055589;28;20445;-79
2021/06/08 06:51:12;;;;;;;31.70;29.00;;;;;;;;;;5054391;28;20964;-79
2021/06/08 06:53:38;;;;;;;34.30;31.30;;;;;;;;;;5061861;28;20453;-80
2021/06/08 06:56:06;;;;;;;32.83;29.90;;;;;;;;;;5061059;28;20790;-81
2021/06/08 06:58:33;;;;;;;30.57;27.77;;;;;;;;;;5062415;28;20479;-79
2021/06/08 07:01:00;;;;;;;30.63;27.83;;;;;;;;;;5065436;28;20464;-80
2021/06/08 07:03:30;;;;;;;28.93;26.60;;;;;;;;;;5067993;28;20457;-80
2021/06/08 07:05:57;;;;;;;27.70;25.50;;;;;;;;;;5070569;28;20464;-79
2021/06/08 07:08:25;;;;;;;25.03;23.00;;;;;;;;;;5062095;28;20443;-81
2021/06/08 07:10:52;;;;;;;23.73;21.50;;;;;;;;;;5054320;28;20510;-80
2021/06/08 07:13:20;;;;;;;21.30;19.70;;;21.40;80.50;;;;;;5054147;28;20458;-79
2021/06/08 07:15:48;;;;;;;21.67;19.93;;;21.20;79.20;;;;;;5058074;28;20461;-80
2021/06/08 07:18:14;;;;;;;20.73;19.03;;;21.20;79.90;;;;;;5058954;28;20499;-79
2021/06/08 07:20:43;;;;;;;21.67;19.87;;;21.10;79.90;;;;;;5057354;28;20459;-79
2021/06/08 07:23:14;;;;;;;23.90;21.80;;;21.10;80.20;;;;;;5064365;28;20448;-78
2021/06/08 07:25:41;;;;;;;21.77;20.07;;;20.90;81.00;;;;;;5056117;28;20473;-80
2021/06/08 07:28:08;;;;;;;22.63;20.63;;;21.00;80.90;;;;;;5055017;28;20510;-79
2021/06/08 07:30:36;;;;;;;23.37;21.50;;;20.80;80.40;;;;;;5051300;28;20838;-78
2021/06/08 07:33:12;;;;;;;21.97;20.03;;;20.90;80.90;;;;;;5049924;28;20605;-79
2021/06/08 07:35:50;;;;;;;23.07;21.17;;;21.40;80.40;;;;;;5064156;28;20456;-80
2021/06/08 07:38:20;;;;;;;21.40;19.63;;;21.50;79.40;;;;;;5058659;28;20475;-79
2021/06/08 07:40:55;;;;;;;22.10;20.20;;;21.60;78.10;;;;;;5051042;28;20451;-80
2021/06/08 07:43:26;;;;;;;22.37;20.33;;;21.60;78.20;;;;;;5060870;28;20449;-79
2021/06/08 07:45:52;;;;;;;22.57;20.47;;;22.00;78.40;;;;;;5060736;28;20462;-80
2021/06/08 07:48:26;;;;;;;22.30;20.50;;;21.70;77.20;;;;;;5071617;28;20452;-80
2021/06/08 07:50:56;;;;;;;20.60;18.77;;;21.80;78.00;;;;;;5055108;28;20530;-79
2021/06/08 07:53:24;;;;;;;22.13;20.40;;;21.80;78.30;;;;;;5057781;28;20460;-79
2021/06/08 07:55:52;;;;;;;22.57;20.67;;;22.00;77.20;;;;;;5053703;28;20525;-80
2021/06/08 07:58:22;;;;;;;22.07;20.27;;;21.60;76.80;;;;;;5057241;28;20483;-79
2021/06/08 08:00:49;;;;;;;20.27;18.60;;;21.90;77.60;;;;;;5049524;28;20468;-81
2021/06/08 08:03:26;;;;;;;19.77;18.17;;;22.20;77.50;;;;;;5056732;28;20455;-80
2021/06/08 08:05:57;;;;;;;21.00;19.40;;;23.10;76.60;;;;;;5052890;28;20462;-80
2021/06/08 08:08:23;;;;;;;21.37;19.47;;;23.50;75.00;;;;;;5054109;28;20589;-78
2021/06/08 08:10:50;;;;;;;19.60;17.83;;;22.30;75.50;;;;;;5048259;28;20707;-78
2021/06/08 08:13:21;;;;;;;20.13;18.33;;;22.80;76.10;;;;;;5047080;28;20489;-77
2021/06/08 08:15:50;;;;;;;20.00;18.50;;;23.30;74.10;;;;;;5056363;28;20456;-78
2021/06/08 08:18:18;;;;;;;21.50;19.80;;;22.80;74.20;;;;;;5048205;28;20551;-76
2021/06/08 08:20:50;;;;;;;21.17;19.37;;;23.20;74.60;;;;;;5059324;28;20454;-77
2021/06/08 08:23:18;;;;;;;20.80;19.17;;;22.10;73.30;;;;;;5052201;28;20468;-77
2021/06/08 08:25:44;;;;;;;19.23;17.57;;;22.20;74.00;;;;;;5054878;28;20851;-77
2021/06/08 08:28:12;;;;;;;21.70;19.93;;;22.30;74.40;;;;;;5054544;28;20574;-78
2021/06/08 08:30:38;;;;;;;19.17;17.67;;;23.10;74.50;;;;;;5051317;28;20474;-77
2021/06/08 08:33:05;;;;;;;19.47;18.00;;;22.50;73.40;;;;;;5043482;28;20538;-77
2021/06/08 08:35:32;;;;;;;20.00;18.30;;;23.00;72.90;;;;;;5046153;28;20453;-76
2021/06/08 08:37:59;;;;;;;19.50;18.00;;;23.40;72.50;;;;;;5049053;28;20490;-78
2021/06/08 08:40:27;;;;;;;19.50;18.00;;;24.00;72.50;;;;;;5043613;28;20472;-76
2021/06/08 08:42:54;;;;;;;19.20;17.70;;;23.20;71.20;;;;;;5046741;28;20458;-77
2021/06/08 08:45:21;;;;;;;20.63;19.03;;;23.70;71.80;;;;;;5038641;28;20471;-79
2021/06/08 08:47:48;;;;;;;19.90;18.30;;;23.50;70.70;;;;;;5048142;28;20466;-77
2021/06/08 08:50:17;;;;;;;19.63;18.03;;;;;;;;;;5053982;28;20475;-78
2021/06/08 08:52:45;;;;;;;19.70;18.00;;;;;;;;;;5053859;28;20905;-77
2021/06/08 08:55:12;;;;;;;19.80;18.30;;;;;;;;;;5059006;28;20946;-78
2021/06/08 08:57:40;;;;;;;19.00;17.60;;;;;;;;;;5051406;28;20571;-77
2021/06/08 09:00:09;;;;;;;20.20;18.60;;;;;;;;;;5047356;28;20460;-77
2021/06/08 09:02:36;;;;;;;19.37;17.70;;;;;;;;;;5047080;28;20595;-76
2021/06/08 09:05:02;;;;;;;17.83;16.30;;;;;;;;;;5049123;28;20465;-77
2021/06/08 09:07:29;;;;;;;18.00;16.70;;;;;;;;;;5051457;28;20462;-79
2021/06/08 09:09:57;;;;;;;17.93;16.53;;;;;;;;;;5048228;28;20910;-79
2021/06/08 09:12:24;;;;;;;17.37;15.90;;;;;;;;;;5057538;28;20564;-78
2021/06/08 09:14:52;;;;;;;16.00;14.70;;;;;;;;;;5057220;28;20457;-78
2021/06/08 09:17:19;;;;;;;16.07;14.87;;;;;;;;;;5058118;28;20569;-80
2021/06/08 09:19:47;;;;;;;18.63;16.73;;;;;;;;;;5056337;28;20493;-78
2021/06/08 09:22:14;;;;;;;17.10;15.90;;;;;;;;;;5057532;28;20917;-76
2021/06/08 09:24:43;;;;;;;16.73;15.40;;;;;;;;;;5055445;28;20462;-81
2021/06/08 09:27:10;;;;;;;19.33;17.10;;;;;;;;;;5058256;28;20530;-77
2021/06/08 09:29:38;;;;;;;16.20;14.80;;;;;;;;;;5062407;28;20452;-80
2021/06/08 09:32:29;;;;;;;16.17;15.07;;;;;;;;;;5064341;28;21046;-77
2021/06/08 09:34:57;;;;;;;17.60;16.10;;;;;;;;;;5049106;28;20465;-78
2021/06/08 09:37:31;;;;;;;16.30;15.00;;;;;;;;;;5061239;28;20976;-78
2021/06/08 09:39:58;;;;;;;17.37;16.03;;;;;;;;;;5058465;28;20487;-78
2021/06/08 09:42:25;;;;;;;16.30;15.10;;;;;;;;;;5048706;28;20456;-79
2021/06/08 09:44:52;;;;;;;16.43;15.13;;;;;;;;;;5052678;28;20450;-79
2021/06/08 09:47:26;;;;;;;16.23;14.83;;;;;;;;;;5050386;28;20457;-78
2021/06/08 09:49:53;;;;;;;15.73;14.50;;;;;;;;;;5054700;28;20457;-79
2021/06/08 09:52:21;;;;;;;16.60;15.23;;;;;;;;;;5055066;28;20453;-78
2021/06/08 09:54:51;;;;;;;13.80;12.90;;;;;;;;;;5051653;28;20463;-79
2021/06/08 09:57:19;;;;;;;14.17;13.07;;;;;;;;;;5058353;28;20871;-78
2021/06/08 09:59:47;;;;;;;14.37;12.87;;;;;;;;;;5055587;28;20453;-79
2021/06/08 10:02:38;;;;;;;13.60;12.60;;;;;;;;;;5054651;28;20461;-81
2021/06/08 10:05:22;;;;;;;15.23;14.00;;;;;;;;;;5038211;28;20543;-79
2021/06/08 10:07:51;;;;;;;14.30;13.20;;;;;;;;;;5061977;28;20681;-85
2021/06/08 10:10:19;;;;;;;14.57;13.57;;;;;;;;;;5056115;28;20477;-80
2021/06/08 10:12:56;;;;;;;15.47;14.27;;;;;;;;;;5064015;28;20483;-79
2021/06/08 10:15:23;;;;;;;14.67;13.57;;;;;;;;;;5046383;28;20517;-78
2021/06/08 10:17:56;;;;;;;14.27;13.13;;;;;;;;;;5060344;28;20618;-80
2021/06/08 10:20:23;;;;;;;14.80;13.50;;;;;;;;;;5055840;28;20484;-79
2021/06/08 10:22:51;;;;;;;14.10;13.10;;;;;;;;;;5055546;28;20526;-79
2021/06/08 10:25:18;;;;;;;13.37;12.47;;;;;;;;;;5048394;28;20537;-82
2021/06/08 10:27:45;;;;;;;13.00;11.97;;;;;;;;;;5055616;28;20531;-78
2021/06/08 10:30:12;;;;;;;13.13;12.13;;;;;;;;;;5052329;28;20507;-80
2021/06/08 10:32:39;;;;;;;13.47;12.30;;;;;;;;;;5050512;28;20460;-79
2021/06/08 10:35:07;;;;;;;13.60;12.40;;;;;;;;;;5046608;28;20478;-81
2021/06/08 10:37:33;;;;;;;13.23;12.23;;;;;;;;;;5050429;28;20474;-79
2021/06/08 10:40:02;;;;;;;13.97;12.80;;;;;;;;;;5051307;28;20477;-80
2021/06/08 10:42:30;;;;;;;13.40;12.30;;;25.00;63.10;;;;;;5047209;28;20604;-81
2021/06/08 10:45:05;;;;;;;13.30;12.20;;;26.30;60.30;;;;;;5051789;28;20480;-80
2021/06/08 10:47:35;;;;;;;13.20;12.10;;;;;;;;;;5051659;28;20925;-78
2021/06/08 10:50:02;;;;;;;14.20;13.03;;;;;;;;;;5052158;28;20490;-78
2021/06/08 10:52:29;;;;;;;13.43;12.47;;;;;;;;;;5050921;28;20448;-77
2021/06/08 10:54:56;;;;;;;14.30;13.20;;;;;;;;;;5060025;28;20472;-84
2021/06/08 10:57:42;;;;;;;13.20;12.20;;;;;;;;;;5058237;28;20469;-84
2021/06/08 11:00:29;;;;;;;14.63;13.47;;;;;;;;;;5059746;28;20517;-82
2021/06/08 11:03:00;;;;;;;15.07;13.97;;;;;;;;;;5050482;28;20460;-79
2021/06/08 11:05:45;;;;;;;15.43;14.23;;;;;;;;;;5051743;28;20730;-81
2021/06/08 11:08:12;;;;;;;13.70;12.80;;;;;;;;;;5060795;28;20459;-81
2021/06/08 11:10:55;;;;;;;13.47;12.57;;;;;;;;;;5061887;28;20459;-81
2021/06/08 11:13:40;;;;;;;13.90;12.90;;;;;;;;;;5059140;28;20535;-82
2021/06/08 11:16:25;;;;;;;13.30;12.40;;;;;;;;;;5060261;28;20471;-80
2021/06/08 11:18:53;;;;;;;12.00;11.10;;;;;;;;;;5059573;28;20464;-79
2021/06/08 11:21:24;;;;;;;13.30;12.37;;;;;;;;;;5059972;28;20531;-81
2021/06/08 11:23:54;;;;;;;12.80;11.90;;;;;;;;;;5056035;28;20484;-81
2021/06/08 11:26:41;;;;;;;11.30;10.50;;;;;;;;;;5062990;28;20873;-79
2021/06/08 11:29:07;;;;;;;13.17;12.17;;;;;;;;;;5052365;28;20566;-82
2021/06/08 11:31:50;;;;;;;12.00;11.20;;;;;;;;;;5065089;28;20457;-81
2021/06/08 11:34:18;;;;;;;12.03;10.93;;;;;;;;;;5060847;28;20772;-79
2021/06/08 11:36:46;;;;;;;12.43;11.43;;;;;;;;;;5065356;28;20452;-79
2021/06/08 11:39:26;;;;;;;12.23;11.43;;;;;;;;;;5053144;28;20499;-79
2021/06/08 11:41:56;;;;;;;12.50;11.47;;;;;;;;;;5063719;28;20470;-79
2021/06/08 11:44:22;;;;;;;11.30;10.60;;;;;;;;;;5055087;28;20913;-79
2021/06/08 11:46:54;;;;;;;11.93;11.13;;;;;;;;;;5059210;28;20534;-83
2021/06/08 11:49:23;;;;;;;11.47;10.77;;;;;;;;;;5050134;28;20456;-82
2021/06/08 11:51:51;;;;;;;10.73;10.10;;;;;;;;;;5051496;28;20503;-81
2021/06/08 11:54:37;;;;;;;9.83;9.13;;;;;;;;;;5050421;28;20983;-80
2021/06/08 11:57:04;;;;;;;10.97;10.07;;;;;;;;;;5062824;28;20521;-79
2021/06/08 11:59:32;;;;;;;11.63;10.80;;;;;;;;;;5056977;28;20455;-79
2021/06/08 12:01:59;;;;;;;11.73;10.83;;;;;;;;;;5053638;28;20463;-81
2021/06/08 12:04:28;;;;;;;11.33;10.23;;;;;;;;;;5081075;28;20461;-84
2021/06/08 12:06:59;;;;;;;13.77;10.50;;;;;;;;;;5067944;28;20451;-82
2021/06/08 12:09:27;;;;;;;10.30;9.50;;;;;;;;;;5056155;28;20445;-82
2021/06/08 12:11:54;;;;;;;10.17;9.47;;;;;;;;;;5059720;28;20473;-79
2021/06/08 12:14:24;;;;;;;8.53;7.93;;;;;;;;;;5068518;28;20449;-79
2021/06/08 12:16:58;;;;;;;10.63;9.17;;;;;;;;;;5061470;28;20464;-79
2021/06/08 12:19:32;;;;;;;10.43;9.63;;;;;;;;;;5061201;28;20453;-79
2021/06/08 12:21:59;;;;;;;13.80;12.70;;;;;;;;;;5060046;28;20468;-83
2021/06/08 12:24:27;;;;;;;13.00;12.20;;;;;;;;;;5071487;28;20865;-82
2021/06/08 12:26:55;;;;;;;13.43;12.37;;;;;;;;;;5076172;28;20938;-80
2021/06/08 12:29:25;;;;;;;13.00;12.00;;;;;;;;;;5062501;28;20978;-80
2021/06/08 12:31:53;;;;;;;13.07;12.17;;;;;;;;;;5060286;28;20949;-80
2021/06/08 12:34:20;;;;;;;14.50;13.20;;;;;;;;;;5057379;28;20936;-79
2021/06/08 12:36:49;;;;;;;14.90;13.80;;;;;;;;;;5057682;28;20457;-79
2021/06/08 12:39:17;;;;;;;12.80;12.00;;;;;;;;;;5066409;28;20947;-79
2021/06/08 12:41:45;;;;;;;14.07;12.87;;;;;;;;;;5063916;28;20473;-82
2021/06/08 12:44:11;;;;;;;14.10;13.00;;;;;;;;;;5062894;28;20444;-80
2021/06/08 12:46:39;;;;;;;12.33;11.43;;;;;;;;;;5054652;28;20463;-84
2021/06/08 12:49:06;;;;;;;13.37;12.37;;;;;;;;;;5064525;28;20504;-82
2021/06/08 12:51:34;;;;;;;14.73;13.53;;;;;;;;;;5061608;28;20607;-82
2021/06/08 12:54:02;;;;;;;15.83;14.63;;;;;;;;;;5051992;28;20471;-81
2021/06/08 12:56:29;;;;;;;15.90;14.60;;;;;;;;;;5065662;28;20471;-81
2021/06/08 12:58:56;;;;;;;15.10;13.93;;;;;;;;;;5053175;28;20533;-82
2021/06/08 13:01:24;;;;;;;14.10;13.00;;;;;;;;;;5058894;28;20450;-83
2021/06/08 13:03:51;;;;;;;15.07;13.90;;;;;;;;;;5052077;28;20465;-79
2021/06/08 13:06:20;;;;;;;14.33;13.23;;;;;;;;;;5070305;28;20463;-86
2021/06/08 13:08:48;;;;;;;14.57;13.37;;;;;;;;;;5065638;28;20452;-82
2021/06/08 13:11:20;;;;;;;15.50;14.20;;;;;;;;;;5058065;28;20467;-77
2021/06/08 13:13:47;;;;;;;14.97;13.60;;;;;;;;;;5053560;28;20475;-79
2021/06/08 13:16:30;;;;;;;13.70;12.70;;;;;;;;;;5059040;28;20559;-81
2021/06/08 13:18:57;;;;;;;15.40;13.43;;;;;;;;;;5053962;28;20470;-78
2021/06/08 13:21:32;;;;;;;18.27;14.27;;;;;;;;;;5053025;28;20461;-79
2021/06/08 13:24:11;;;;;;;17.70;16.40;;;;;;;;;;5051692;28;20446;-78
2021/06/08 13:26:40;;;;;;;15.67;14.37;;;;;;;;;;5059178;28;20846;-77
2021/06/08 13:29:13;;;;;;;16.00;14.80;;;;;;;;;;5051574;28;20471;-77
2021/06/08 13:31:40;;;;;;;15.83;14.70;;;;;;;;;;5060167;28;20451;-77
2021/06/08 13:34:16;;;;;;;14.87;13.77;;;;;;;;;;5056584;28;20882;-77
2021/06/08 13:36:43;;;;;;;15.10;13.90;;;;;;;;;;5052647;28;20469;-80
2021/06/08 13:39:10;;;;;;;16.30;15.00;;;;;;;;;;5048588;28;20517;-79
2021/06/08 13:41:37;;;;;;;15.93;14.67;;;;;;;;;;5046248;28;20442;-78
2021/06/08 13:44:08;;;;;;;18.17;16.53;;;;;;;;;;5053427;28;20544;-83
2021/06/08 13:46:35;;;;;;;14.83;13.73;;;;;;;;;;5053547;28;20453;-80
2021/06/08 13:49:04;;;;;;;16.97;15.23;;;;;;;;;;5056649;28;20476;-82
2021/06/08 13:51:32;;;;;;;13.30;12.20;;;;;;;;;;5054438;28;20539;-78
2021/06/08 13:54:09;;;;;;;14.20;13.00;;;;;;;;;;5050595;28;20457;-78
2021/06/08 13:56:45;;;;;;;13.50;12.30;;;;;;;;;;5052307;28;20880;-79
2021/06/08 14:02:00;;;;;;;12.50;11.50;;;;;;;;;;5059025;28;20478;-80
2021/06/08 14:04:28;;;;;;;12.73;11.80;;;;;;;;;;5053165;28;20456;-80
2021/06/08 14:06:58;;;;;;;12.40;11.20;;;;;;;;;;5046836;28;20547;-80
2021/06/08 14:09:27;;;;;;;14.47;13.07;;;;;;;;;;5048160;28;20636;-80
2021/06/08 14:11:54;;;;;;;13.30;12.30;;;;;;;;;;5047648;28;20563;-82
2021/06/08 14:14:28;;;;;;;11.60;10.60;;;;;;;;;;5041786;28;20492;-80